CES2811 ZSNJ-ZBAD
Flight info
| Callsign | CES2811 |
|---|---|
| Flight time | 1h 23m |
| Altitude | 25600 |
| Route | OF71X OF A470 DPX A593 DALIM W157 AVBOX AVBOX9M |
| Aircraft | A321/M-SDE3FGHIRWY/LB1 |
Departure
| Time | 2026-04-19 08:26 |
|---|---|
| Airport | Nanjing Lukou International Airport (ZSNJ) |
Arrival
| Time | 2026-04-19 09:50 |
|---|---|
| Airport | Beijing Daxing International Airport (ZBAD) |
| Time | Latitude | Longitude | Altitude | Speed | Heading |
|---|---|---|---|---|---|
| 2026-04-19 06:53 | 31.72979 | 118.86583 | 57 ft | 0 kts | 148° |
| 2026-04-19 08:14 | 31.72983 | 118.86580 | 57 ft | 2 kts | 148° |
| 2026-04-19 08:14 | 31.73004 | 118.86565 | 57 ft | 2 kts | 162° |
| 2026-04-19 08:14 | 31.73019 | 118.86564 | 57 ft | 2 kts | 197° |
| 2026-04-19 08:15 | 31.73032 | 118.86573 | 57 ft | 2 kts | 229° |
| 2026-04-19 08:15 | 31.73036 | 118.86579 | 57 ft | 1 kts | 243° |
| 2026-04-19 08:15 | 31.73038 | 118.86584 | 57 ft | 0 kts | 239° |
| 2026-04-19 08:17 | 31.73037 | 118.86581 | 57 ft | 1 kts | 239° |
| 2026-04-19 08:17 | 31.73026 | 118.86561 | 57 ft | 4 kts | 238° |
| 2026-04-19 08:18 | 31.73014 | 118.86537 | 57 ft | 5 kts | 237° |
| 2026-04-19 08:18 | 31.72984 | 118.86482 | 57 ft | 6 kts | 237° |
| 2026-04-19 08:18 | 31.72957 | 118.86433 | 57 ft | 7 kts | 236° |
| 2026-04-19 08:18 | 31.72942 | 118.86397 | 57 ft | 7 kts | 261° |
| 2026-04-19 08:19 | 31.72970 | 118.86343 | 57 ft | 8 kts | 324° |
| 2026-04-19 08:19 | 31.73023 | 118.86304 | 57 ft | 9 kts | 328° |
| 2026-04-19 08:19 | 31.73086 | 118.86258 | 57 ft | 11 kts | 327° |
| 2026-04-19 08:19 | 31.73185 | 118.86186 | 57 ft | 13 kts | 328° |
| 2026-04-19 08:20 | 31.73241 | 118.86145 | 57 ft | 14 kts | 328° |
| 2026-04-19 08:20 | 31.73359 | 118.86058 | 57 ft | 15 kts | 328° |
| 2026-04-19 08:20 | 31.73423 | 118.86011 | 57 ft | 16 kts | 328° |
| 2026-04-19 08:20 | 31.73518 | 118.85941 | 57 ft | 16 kts | 328° |
| 2026-04-19 08:21 | 31.73615 | 118.85871 | 57 ft | 16 kts | 328° |
| 2026-04-19 08:21 | 31.73710 | 118.85802 | 57 ft | 14 kts | 328° |
| 2026-04-19 08:21 | 31.73752 | 118.85762 | 57 ft | 7 kts | 294° |
| 2026-04-19 08:21 | 31.73730 | 118.85681 | 57 ft | 8 kts | 239° |
| 2026-04-19 08:22 | 31.73709 | 118.85641 | 57 ft | 9 kts | 238° |
| 2026-04-19 08:22 | 31.73656 | 118.85541 | 57 ft | 12 kts | 238° |
| 2026-04-19 08:22 | 31.73606 | 118.85448 | 57 ft | 14 kts | 238° |
| 2026-04-19 08:22 | 31.73552 | 118.85346 | 57 ft | 15 kts | 238° |
| 2026-04-19 08:23 | 31.73512 | 118.85271 | 57 ft | 16 kts | 238° |
| 2026-04-19 08:23 | 31.73425 | 118.85109 | 57 ft | 18 kts | 238° |
| 2026-04-19 08:23 | 31.73356 | 118.84979 | 57 ft | 19 kts | 238° |
| 2026-04-19 08:23 | 31.73308 | 118.84889 | 57 ft | 19 kts | 238° |
| 2026-04-19 08:24 | 31.73240 | 118.84762 | 57 ft | 12 kts | 239° |
| 2026-04-19 08:24 | 31.73233 | 118.84695 | 57 ft | 8 kts | 316° |
| 2026-04-19 08:24 | 31.73307 | 118.84641 | 57 ft | 9 kts | 328° |
| 2026-04-19 08:24 | 31.73341 | 118.84616 | 57 ft | 6 kts | 329° |
| 2026-04-19 08:25 | 31.73378 | 118.84628 | 57 ft | 6 kts | 39° |
| 2026-04-19 08:25 | 31.73388 | 118.84644 | 57 ft | 0 kts | 58° |
| 2026-04-19 08:25 | 31.73392 | 118.84653 | 57 ft | 6 kts | 59° |
| 2026-04-19 08:26 | 31.73460 | 118.84780 | 57 ft | 53 kts | 58° |
| 2026-04-19 08:26 | 31.73955 | 118.85705 | 57 ft | 142 kts | 58° |
| 2026-04-19 08:26 | 31.74343 | 118.86431 | 170 ft | 165 kts | 58° |
| 2026-04-19 08:26 | 31.74933 | 118.87544 | 846 ft | 161 kts | 58° |
| 2026-04-19 08:27 | 31.75532 | 118.88655 | 1446 ft | 166 kts | 58° |
| 2026-04-19 08:27 | 31.76364 | 118.90205 | 2178 ft | 176 kts | 58° |
| 2026-04-19 08:27 | 31.76811 | 118.91042 | 2463 ft | 187 kts | 58° |
| 2026-04-19 08:27 | 31.77776 | 118.92858 | 3010 ft | 210 kts | 57° |
| 2026-04-19 08:28 | 31.78594 | 118.94389 | 3438 ft | 230 kts | 57° |
| 2026-04-19 08:28 | 31.79182 | 118.95492 | 3684 ft | 246 kts | 57° |
| 2026-04-19 08:28 | 31.80401 | 118.97782 | 4389 ft | 253 kts | 57° |
| 2026-04-19 08:28 | 31.81019 | 118.98947 | 4766 ft | 255 kts | 57° |
| 2026-04-19 08:29 | 31.82025 | 119.00670 | 5282 ft | 260 kts | 44° |
| 2026-04-19 08:29 | 31.83611 | 119.01737 | 5604 ft | 268 kts | 9° |
| 2026-04-19 08:29 | 31.85464 | 119.01718 | 6184 ft | 268 kts | 345° |
| 2026-04-19 08:29 | 31.87758 | 119.00610 | 6963 ft | 272 kts | 335° |
| 2026-04-19 08:30 | 31.89478 | 118.99693 | 7559 ft | 274 kts | 335° |
| 2026-04-19 08:30 | 31.91235 | 118.98756 | 8195 ft | 275 kts | 335° |
| 2026-04-19 08:30 | 31.92381 | 118.98144 | 8603 ft | 276 kts | 335° |
| 2026-04-19 08:30 | 31.94732 | 118.96890 | 9447 ft | 278 kts | 335° |
| 2026-04-19 08:31 | 31.95899 | 118.96266 | 9839 ft | 279 kts | 335° |
| 2026-04-19 08:31 | 31.97684 | 118.95312 | 10361 ft | 285 kts | 335° |
| 2026-04-19 08:31 | 31.99513 | 118.94335 | 10627 ft | 299 kts | 335° |
| 2026-04-19 08:31 | 32.01461 | 118.93294 | 10873 ft | 313 kts | 335° |
| 2026-04-19 08:32 | 32.03515 | 118.92197 | 11123 ft | 327 kts | 335° |
| 2026-04-19 08:32 | 32.05609 | 118.91077 | 11362 ft | 340 kts | 335° |
| 2026-04-19 08:32 | 32.08535 | 118.89512 | 11917 ft | 348 kts | 335° |
| 2026-04-19 08:32 | 32.10005 | 118.88724 | 12282 ft | 349 kts | 335° |
| 2026-04-19 08:33 | 32.12940 | 118.87151 | 13014 ft | 350 kts | 335° |
| 2026-04-19 08:33 | 32.14410 | 118.86365 | 13365 ft | 350 kts | 335° |
| 2026-04-19 08:33 | 32.16651 | 118.85163 | 13858 ft | 352 kts | 335° |
| 2026-04-19 08:33 | 32.19624 | 118.83569 | 14511 ft | 355 kts | 335° |
| 2026-04-19 08:34 | 32.21883 | 118.82357 | 14981 ft | 357 kts | 335° |
| 2026-04-19 08:34 | 32.24144 | 118.81142 | 15466 ft | 358 kts | 335° |
| 2026-04-19 08:34 | 32.26418 | 118.79921 | 15966 ft | 359 kts | 335° |
| 2026-04-19 08:34 | 32.27939 | 118.79104 | 16249 ft | 361 kts | 335° |
| 2026-04-19 08:35 | 32.30213 | 118.77880 | 16683 ft | 362 kts | 335° |
| 2026-04-19 08:35 | 32.33288 | 118.76222 | 17272 ft | 365 kts | 335° |
| 2026-04-19 08:35 | 32.34830 | 118.75391 | 17545 ft | 366 kts | 334° |
| 2026-04-19 08:35 | 32.37159 | 118.74135 | 17978 ft | 368 kts | 334° |
| 2026-04-19 08:36 | 32.40273 | 118.72454 | 18530 ft | 371 kts | 335° |
| 2026-04-19 08:36 | 32.41848 | 118.71603 | 18826 ft | 372 kts | 335° |
| 2026-04-19 08:36 | 32.45002 | 118.69899 | 19379 ft | 374 kts | 334° |
| 2026-04-19 08:36 | 32.46571 | 118.69052 | 19554 ft | 376 kts | 334° |
| 2026-04-19 08:37 | 32.48953 | 118.67766 | 19581 ft | 375 kts | 334° |
| 2026-04-19 08:37 | 32.51324 | 118.66481 | 19587 ft | 375 kts | 334° |
| 2026-04-19 08:37 | 32.54485 | 118.64767 | 19587 ft | 376 kts | 334° |
| 2026-04-19 08:37 | 32.56063 | 118.63912 | 19589 ft | 375 kts | 334° |
| 2026-04-19 08:38 | 32.59265 | 118.62174 | 19596 ft | 376 kts | 334° |
| 2026-04-19 08:38 | 32.60849 | 118.61315 | 19600 ft | 376 kts | 334° |
| 2026-04-19 08:38 | 32.63206 | 118.60037 | 19600 ft | 376 kts | 334° |
| 2026-04-19 08:38 | 32.66393 | 118.58377 | 19602 ft | 377 kts | 337° |
| 2026-04-19 08:39 | 32.68029 | 118.57653 | 19606 ft | 377 kts | 339° |
| 2026-04-19 08:39 | 32.70552 | 118.56686 | 19633 ft | 380 kts | 341° |
| 2026-04-19 08:39 | 32.73937 | 118.55479 | 20154 ft | 382 kts | 341° |
| 2026-04-19 08:39 | 32.76478 | 118.54577 | 20618 ft | 382 kts | 341° |
| 2026-04-19 08:40 | 32.78204 | 118.53964 | 20860 ft | 384 kts | 341° |
| 2026-04-19 08:40 | 32.81602 | 118.52753 | 21330 ft | 387 kts | 341° |
| 2026-04-19 08:40 | 32.83339 | 118.52133 | 21572 ft | 388 kts | 341° |
| 2026-04-19 08:40 | 32.85934 | 118.51207 | 21908 ft | 391 kts | 341° |
| 2026-04-19 08:41 | 32.88535 | 118.50276 | 22238 ft | 393 kts | 341° |
| 2026-04-19 08:41 | 32.91159 | 118.49335 | 22575 ft | 395 kts | 341° |
| 2026-04-19 08:41 | 32.93821 | 118.48381 | 22910 ft | 397 kts | 341° |
| 2026-04-19 08:41 | 32.96481 | 118.47429 | 23229 ft | 399 kts | 341° |
| 2026-04-19 08:42 | 32.99136 | 118.46476 | 23553 ft | 401 kts | 341° |
| 2026-04-19 08:42 | 33.01802 | 118.45519 | 23895 ft | 402 kts | 341° |
| 2026-04-19 08:42 | 33.04485 | 118.44554 | 24228 ft | 404 kts | 341° |
| 2026-04-19 08:42 | 33.07174 | 118.43587 | 24527 ft | 406 kts | 341° |
| 2026-04-19 08:43 | 33.09892 | 118.42608 | 24833 ft | 407 kts | 341° |
| 2026-04-19 08:43 | 33.12649 | 118.41614 | 25129 ft | 409 kts | 342° |
| 2026-04-19 08:43 | 33.15376 | 118.40630 | 25403 ft | 411 kts | 342° |
| 2026-04-19 08:43 | 33.18113 | 118.39645 | 25484 ft | 412 kts | 342° |
| 2026-04-19 08:44 | 33.20838 | 118.38663 | 25490 ft | 411 kts | 342° |
| 2026-04-19 08:44 | 33.23609 | 118.37665 | 25491 ft | 412 kts | 342° |
| 2026-04-19 08:44 | 33.27249 | 118.36359 | 25492 ft | 412 kts | 342° |
| 2026-04-19 08:44 | 33.29982 | 118.35378 | 25491 ft | 412 kts | 342° |
| 2026-04-19 08:45 | 33.32752 | 118.34380 | 25492 ft | 412 kts | 341° |
| 2026-04-19 08:45 | 33.34566 | 118.33726 | 25493 ft | 412 kts | 341° |
| 2026-04-19 08:45 | 33.38229 | 118.32404 | 25491 ft | 413 kts | 341° |
| 2026-04-19 08:45 | 33.40062 | 118.31743 | 25491 ft | 413 kts | 341° |
| 2026-04-19 08:46 | 33.42861 | 118.30732 | 25492 ft | 413 kts | 341° |
| 2026-04-19 08:46 | 33.46576 | 118.29388 | 25491 ft | 413 kts | 341° |
| 2026-04-19 08:46 | 33.48415 | 118.28723 | 25490 ft | 413 kts | 341° |
| 2026-04-19 08:46 | 33.52110 | 118.27384 | 25490 ft | 414 kts | 341° |
| 2026-04-19 08:47 | 33.53965 | 118.26712 | 25491 ft | 414 kts | 341° |
| 2026-04-19 08:47 | 33.56753 | 118.25700 | 25492 ft | 414 kts | 341° |
| 2026-04-19 08:47 | 33.59508 | 118.24700 | 25491 ft | 413 kts | 341° |
| 2026-04-19 08:47 | 33.63189 | 118.23364 | 25491 ft | 414 kts | 341° |
| 2026-04-19 08:48 | 33.65940 | 118.22362 | 25490 ft | 414 kts | 341° |
| 2026-04-19 08:48 | 33.67784 | 118.21692 | 25491 ft | 414 kts | 341° |
| 2026-04-19 08:48 | 33.70545 | 118.20685 | 25492 ft | 415 kts | 341° |
| 2026-04-19 08:48 | 33.74206 | 118.19352 | 25492 ft | 415 kts | 341° |
| 2026-04-19 08:49 | 33.76046 | 118.18680 | 25491 ft | 415 kts | 341° |
| 2026-04-19 08:49 | 33.78811 | 118.17670 | 25490 ft | 415 kts | 341° |
| 2026-04-19 08:49 | 33.81581 | 118.16661 | 25489 ft | 416 kts | 341° |
| 2026-04-19 08:49 | 33.84369 | 118.15649 | 25490 ft | 415 kts | 341° |
| 2026-04-19 08:50 | 33.88047 | 118.14314 | 25492 ft | 416 kts | 341° |
| 2026-04-19 08:50 | 33.89878 | 118.13648 | 25489 ft | 416 kts | 341° |
| 2026-04-19 08:50 | 33.92654 | 118.12638 | 25489 ft | 416 kts | 341° |
| 2026-04-19 08:50 | 33.96343 | 118.11294 | 25491 ft | 416 kts | 341° |
| 2026-04-19 08:51 | 33.99115 | 118.10284 | 25490 ft | 417 kts | 341° |
| 2026-04-19 08:51 | 34.01915 | 118.09264 | 25489 ft | 416 kts | 341° |
| 2026-04-19 08:51 | 34.03766 | 118.08592 | 25490 ft | 417 kts | 341° |
| 2026-04-19 08:51 | 34.06536 | 118.07591 | 25488 ft | 417 kts | 341° |
| 2026-04-19 08:52 | 34.09300 | 118.06589 | 25485 ft | 417 kts | 341° |
| 2026-04-19 08:52 | 34.12094 | 118.05574 | 25485 ft | 418 kts | 341° |
| 2026-04-19 08:52 | 34.15819 | 118.04218 | 25480 ft | 418 kts | 341° |
| 2026-04-19 08:52 | 34.18574 | 118.03213 | 25473 ft | 418 kts | 341° |
| 2026-04-19 08:53 | 34.20455 | 118.02528 | 25474 ft | 419 kts | 341° |
| 2026-04-19 08:53 | 34.23236 | 118.01515 | 25476 ft | 418 kts | 341° |
| 2026-04-19 08:53 | 34.26024 | 118.00498 | 25472 ft | 419 kts | 341° |
| 2026-04-19 08:53 | 34.28809 | 117.99484 | 25469 ft | 418 kts | 341° |
| 2026-04-19 08:54 | 34.32537 | 117.98156 | 25471 ft | 418 kts | 341° |
| 2026-04-19 08:54 | 34.34402 | 117.97495 | 25469 ft | 419 kts | 341° |
| 2026-04-19 08:54 | 34.37196 | 117.96503 | 25468 ft | 419 kts | 341° |
| 2026-04-19 08:54 | 34.40016 | 117.95498 | 25467 ft | 419 kts | 341° |
| 2026-04-19 08:55 | 34.42813 | 117.94501 | 25468 ft | 420 kts | 341° |
| 2026-04-19 08:55 | 34.45613 | 117.93500 | 25468 ft | 421 kts | 341° |
| 2026-04-19 08:55 | 34.48403 | 117.92503 | 25468 ft | 421 kts | 341° |
| 2026-04-19 08:55 | 34.51205 | 117.91501 | 25466 ft | 421 kts | 341° |
| 2026-04-19 08:56 | 34.54038 | 117.90486 | 25468 ft | 422 kts | 341° |
| 2026-04-19 08:56 | 34.56867 | 117.89472 | 25473 ft | 422 kts | 341° |
| 2026-04-19 08:56 | 34.59655 | 117.88472 | 25478 ft | 423 kts | 341° |
| 2026-04-19 08:56 | 34.63410 | 117.87124 | 25485 ft | 423 kts | 341° |
| 2026-04-19 08:57 | 34.65316 | 117.86439 | 25487 ft | 423 kts | 341° |
| 2026-04-19 08:57 | 34.69085 | 117.85082 | 25486 ft | 423 kts | 341° |
| 2026-04-19 08:57 | 34.70930 | 117.84419 | 25486 ft | 422 kts | 340° |
| 2026-04-19 08:57 | 34.73764 | 117.83398 | 25487 ft | 423 kts | 340° |
| 2026-04-19 08:58 | 34.76599 | 117.82372 | 25487 ft | 423 kts | 341° |
| 2026-04-19 08:58 | 34.79397 | 117.81363 | 25488 ft | 423 kts | 340° |
| 2026-04-19 08:58 | 34.82255 | 117.80333 | 25489 ft | 423 kts | 341° |
| 2026-04-19 08:58 | 34.85062 | 117.79305 | 25488 ft | 423 kts | 340° |
| 2026-04-19 08:59 | 34.88798 | 117.77939 | 25488 ft | 423 kts | 340° |
| 2026-04-19 08:59 | 34.90687 | 117.77249 | 25488 ft | 424 kts | 340° |
| 2026-04-19 08:59 | 34.94467 | 117.75866 | 25487 ft | 425 kts | 340° |
| 2026-04-19 08:59 | 34.96344 | 117.75180 | 25485 ft | 426 kts | 340° |
| 2026-04-19 09:00 | 34.99200 | 117.74133 | 25485 ft | 425 kts | 340° |
| 2026-04-19 09:00 | 35.02025 | 117.73096 | 25487 ft | 425 kts | 340° |
| 2026-04-19 09:00 | 35.05793 | 117.71712 | 25492 ft | 425 kts | 340° |
| 2026-04-19 09:00 | 35.07700 | 117.71014 | 25492 ft | 425 kts | 340° |
| 2026-04-19 09:01 | 35.11461 | 117.69642 | 25493 ft | 425 kts | 340° |
| 2026-04-19 09:01 | 35.13365 | 117.68945 | 25496 ft | 424 kts | 340° |
| 2026-04-19 09:01 | 35.16162 | 117.67920 | 25498 ft | 424 kts | 340° |
| 2026-04-19 09:01 | 35.18995 | 117.66882 | 25500 ft | 425 kts | 340° |
| 2026-04-19 09:02 | 35.21836 | 117.65838 | 25497 ft | 425 kts | 340° |
| 2026-04-19 09:02 | 35.24670 | 117.64796 | 25499 ft | 425 kts | 340° |
| 2026-04-19 09:02 | 35.28434 | 117.63412 | 25497 ft | 425 kts | 340° |
| 2026-04-19 09:02 | 35.30334 | 117.62712 | 25497 ft | 426 kts | 340° |
| 2026-04-19 09:03 | 35.33173 | 117.61665 | 25496 ft | 426 kts | 339° |
| 2026-04-19 09:03 | 35.36007 | 117.60620 | 25493 ft | 426 kts | 340° |
| 2026-04-19 09:03 | 35.38863 | 117.59565 | 25492 ft | 426 kts | 339° |
| 2026-04-19 09:03 | 35.41681 | 117.58527 | 25490 ft | 426 kts | 339° |
| 2026-04-19 09:04 | 35.45481 | 117.57120 | 25490 ft | 426 kts | 339° |
| 2026-04-19 09:04 | 35.47357 | 117.56425 | 25487 ft | 427 kts | 339° |
| 2026-04-19 09:04 | 35.51142 | 117.55023 | 25487 ft | 427 kts | 339° |
| 2026-04-19 09:04 | 35.53025 | 117.54325 | 25484 ft | 427 kts | 339° |
| 2026-04-19 09:05 | 35.55870 | 117.53271 | 25485 ft | 427 kts | 339° |
| 2026-04-19 09:05 | 35.58707 | 117.52219 | 25484 ft | 427 kts | 339° |
| 2026-04-19 09:05 | 35.61550 | 117.51163 | 25481 ft | 426 kts | 339° |
| 2026-04-19 09:05 | 35.64395 | 117.50106 | 25480 ft | 427 kts | 339° |
| 2026-04-19 09:06 | 35.67245 | 117.49045 | 25481 ft | 428 kts | 339° |
| 2026-04-19 09:06 | 35.70071 | 117.47993 | 25478 ft | 427 kts | 339° |
| 2026-04-19 09:06 | 35.72932 | 117.46927 | 25482 ft | 427 kts | 339° |
| 2026-04-19 09:06 | 35.75758 | 117.45872 | 25476 ft | 428 kts | 339° |
| 2026-04-19 09:07 | 35.78630 | 117.44803 | 25471 ft | 427 kts | 338° |
| 2026-04-19 09:07 | 35.81465 | 117.43743 | 25475 ft | 427 kts | 339° |
| 2026-04-19 09:07 | 35.85262 | 117.42320 | 25477 ft | 428 kts | 339° |
| 2026-04-19 09:07 | 35.87130 | 117.41622 | 25474 ft | 428 kts | 338° |
| 2026-04-19 09:08 | 35.90011 | 117.40542 | 25472 ft | 428 kts | 339° |
| 2026-04-19 09:08 | 35.93811 | 117.39120 | 25469 ft | 428 kts | 338° |
| 2026-04-19 09:08 | 35.95693 | 117.38416 | 25464 ft | 429 kts | 338° |
| 2026-04-19 09:08 | 35.99495 | 117.36987 | 25468 ft | 429 kts | 338° |
| 2026-04-19 09:09 | 36.01428 | 117.36264 | 25467 ft | 428 kts | 338° |
| 2026-04-19 09:09 | 36.04282 | 117.35212 | 25465 ft | 428 kts | 339° |
| 2026-04-19 09:09 | 36.08094 | 117.33813 | 25465 ft | 429 kts | 338° |
| 2026-04-19 09:09 | 36.10952 | 117.32759 | 25458 ft | 429 kts | 338° |
| 2026-04-19 09:10 | 36.13809 | 117.31702 | 25460 ft | 430 kts | 338° |
| 2026-04-19 09:10 | 36.15708 | 117.30998 | 25461 ft | 430 kts | 338° |
| 2026-04-19 09:10 | 36.18584 | 117.29932 | 25457 ft | 431 kts | 337° |
| 2026-04-19 09:10 | 36.21441 | 117.28876 | 25459 ft | 429 kts | 337° |
| 2026-04-19 09:11 | 36.24297 | 117.27812 | 25461 ft | 429 kts | 338° |
| 2026-04-19 09:11 | 36.27174 | 117.26743 | 25462 ft | 429 kts | 337° |
| 2026-04-19 09:11 | 36.30983 | 117.25325 | 25463 ft | 429 kts | 337° |
| 2026-04-19 09:11 | 36.32869 | 117.24625 | 25465 ft | 430 kts | 337° |
| 2026-04-19 09:12 | 36.35748 | 117.23550 | 25469 ft | 430 kts | 337° |
| 2026-04-19 09:12 | 36.39538 | 117.22131 | 25470 ft | 431 kts | 336° |
| 2026-04-19 09:12 | 36.41459 | 117.21342 | 25472 ft | 429 kts | 334° |
| 2026-04-19 09:12 | 36.44233 | 117.20041 | 25477 ft | 427 kts | 332° |
| 2026-04-19 09:13 | 36.46961 | 117.18649 | 25480 ft | 426 kts | 331° |
| 2026-04-19 09:13 | 36.49721 | 117.17214 | 25480 ft | 427 kts | 331° |
| 2026-04-19 09:13 | 36.52459 | 117.15788 | 25479 ft | 428 kts | 331° |
| 2026-04-19 09:13 | 36.55192 | 117.14363 | 25474 ft | 428 kts | 330° |
| 2026-04-19 09:14 | 36.57923 | 117.12935 | 25470 ft | 428 kts | 331° |
| 2026-04-19 09:14 | 36.60652 | 117.11508 | 25464 ft | 426 kts | 331° |
| 2026-04-19 09:14 | 36.63407 | 117.10073 | 25456 ft | 427 kts | 330° |
| 2026-04-19 09:14 | 36.66128 | 117.08652 | 25448 ft | 427 kts | 330° |
| 2026-04-19 09:15 | 36.68876 | 117.07217 | 25443 ft | 426 kts | 330° |
| 2026-04-19 09:15 | 36.72512 | 117.05317 | 25435 ft | 427 kts | 331° |
| 2026-04-19 09:15 | 36.77072 | 117.02930 | 25429 ft | 427 kts | 330° |
| 2026-04-19 09:16 | 36.80732 | 117.01011 | 25428 ft | 426 kts | 330° |
| 2026-04-19 09:16 | 36.82565 | 117.00050 | 25428 ft | 428 kts | 330° |
| 2026-04-19 09:16 | 36.86194 | 116.98145 | 25427 ft | 429 kts | 330° |
| 2026-04-19 09:16 | 36.88041 | 116.97173 | 25426 ft | 429 kts | 330° |
| 2026-04-19 09:17 | 36.91701 | 116.95249 | 25425 ft | 429 kts | 330° |
| 2026-04-19 09:17 | 36.93523 | 116.94291 | 25425 ft | 427 kts | 330° |
| 2026-04-19 09:17 | 36.97161 | 116.92377 | 25427 ft | 426 kts | 330° |
| 2026-04-19 09:17 | 36.99015 | 116.91399 | 25426 ft | 428 kts | 330° |
| 2026-04-19 09:18 | 37.01741 | 116.89960 | 25424 ft | 429 kts | 330° |
| 2026-04-19 09:18 | 37.04484 | 116.88511 | 25424 ft | 428 kts | 330° |
| 2026-04-19 09:18 | 37.07241 | 116.87052 | 25426 ft | 427 kts | 330° |
| 2026-04-19 09:18 | 37.09965 | 116.85613 | 25425 ft | 427 kts | 330° |
| 2026-04-19 09:19 | 37.12678 | 116.84178 | 25427 ft | 428 kts | 330° |
| 2026-04-19 09:19 | 37.15422 | 116.82726 | 25428 ft | 426 kts | 330° |
| 2026-04-19 09:19 | 37.18171 | 116.81270 | 25428 ft | 427 kts | 330° |
| 2026-04-19 09:19 | 37.21857 | 116.79443 | 25427 ft | 428 kts | 333° |
| 2026-04-19 09:20 | 37.23719 | 116.78651 | 25428 ft | 430 kts | 335° |
| 2026-04-19 09:20 | 37.26576 | 116.77544 | 25434 ft | 431 kts | 336° |
| 2026-04-19 09:20 | 37.29444 | 116.76463 | 25434 ft | 432 kts | 336° |
| 2026-04-19 09:20 | 37.32346 | 116.75375 | 25436 ft | 430 kts | 336° |
| 2026-04-19 09:21 | 37.35217 | 116.74299 | 25414 ft | 432 kts | 336° |
| 2026-04-19 09:21 | 37.38075 | 116.73222 | 25151 ft | 431 kts | 336° |
| 2026-04-19 09:21 | 37.40916 | 116.72148 | 24897 ft | 428 kts | 336° |
| 2026-04-19 09:21 | 37.43699 | 116.71094 | 24582 ft | 429 kts | 336° |
| 2026-04-19 09:22 | 37.47512 | 116.69649 | 23957 ft | 427 kts | 336° |
| 2026-04-19 09:22 | 37.49401 | 116.68932 | 23648 ft | 426 kts | 336° |
| 2026-04-19 09:22 | 37.52246 | 116.67854 | 23186 ft | 424 kts | 336° |
| 2026-04-19 09:22 | 37.55067 | 116.66781 | 22739 ft | 424 kts | 336° |
| 2026-04-19 09:23 | 37.57866 | 116.65715 | 22295 ft | 421 kts | 336° |
| 2026-04-19 09:23 | 37.60676 | 116.64647 | 21854 ft | 419 kts | 336° |
| 2026-04-19 09:23 | 37.63459 | 116.63585 | 21411 ft | 417 kts | 337° |
| 2026-04-19 09:23 | 37.66208 | 116.62538 | 20971 ft | 416 kts | 337° |
| 2026-04-19 09:24 | 37.68956 | 116.61489 | 20524 ft | 414 kts | 337° |
| 2026-04-19 09:24 | 37.71707 | 116.60440 | 20093 ft | 412 kts | 337° |
| 2026-04-19 09:24 | 37.74454 | 116.59388 | 19654 ft | 412 kts | 337° |
| 2026-04-19 09:24 | 37.77187 | 116.58338 | 19213 ft | 411 kts | 338° |
| 2026-04-19 09:25 | 37.79916 | 116.57294 | 18775 ft | 409 kts | 338° |
| 2026-04-19 09:25 | 37.82624 | 116.56257 | 18336 ft | 408 kts | 338° |
| 2026-04-19 09:25 | 37.85340 | 116.55215 | 17897 ft | 407 kts | 338° |
| 2026-04-19 09:25 | 37.88029 | 116.54182 | 17477 ft | 404 kts | 338° |
| 2026-04-19 09:26 | 37.90728 | 116.53144 | 17042 ft | 403 kts | 339° |
| 2026-04-19 09:26 | 37.93370 | 116.52128 | 16625 ft | 399 kts | 339° |
| 2026-04-19 09:26 | 37.95970 | 116.50950 | 16185 ft | 394 kts | 333° |
| 2026-04-19 09:26 | 37.99208 | 116.48874 | 15602 ft | 385 kts | 324° |
| 2026-04-19 09:27 | 38.00698 | 116.47644 | 15317 ft | 382 kts | 321° |
| 2026-04-19 09:27 | 38.02830 | 116.45706 | 14904 ft | 380 kts | 320° |
| 2026-04-19 09:27 | 38.04948 | 116.43733 | 14466 ft | 378 kts | 320° |
| 2026-04-19 09:27 | 38.07079 | 116.41751 | 14021 ft | 376 kts | 320° |
| 2026-04-19 09:28 | 38.09185 | 116.39809 | 13582 ft | 374 kts | 320° |
| 2026-04-19 09:28 | 38.11285 | 116.37884 | 13161 ft | 370 kts | 321° |
| 2026-04-19 09:28 | 38.13354 | 116.35978 | 12776 ft | 366 kts | 321° |
| 2026-04-19 09:28 | 38.15426 | 116.34074 | 12684 ft | 365 kts | 321° |
| 2026-04-19 09:29 | 38.17482 | 116.32187 | 12695 ft | 366 kts | 320° |
| 2026-04-19 09:29 | 38.19553 | 116.30283 | 12698 ft | 367 kts | 320° |
| 2026-04-19 09:29 | 38.21618 | 116.28381 | 12710 ft | 367 kts | 320° |
| 2026-04-19 09:29 | 38.23695 | 116.26523 | 12710 ft | 369 kts | 324° |
| 2026-04-19 09:30 | 38.26102 | 116.25330 | 12688 ft | 377 kts | 346° |
| 2026-04-19 09:30 | 38.28730 | 116.25268 | 12693 ft | 384 kts | 6° |
| 2026-04-19 09:30 | 38.31362 | 116.26090 | 12710 ft | 386 kts | 13° |
| 2026-04-19 09:30 | 38.33947 | 116.27029 | 12720 ft | 387 kts | 14° |
| 2026-04-19 09:31 | 38.36522 | 116.27967 | 12707 ft | 387 kts | 13° |
| 2026-04-19 09:31 | 38.39129 | 116.28899 | 12709 ft | 387 kts | 13° |
| 2026-04-19 09:31 | 38.41710 | 116.29804 | 12711 ft | 387 kts | 12° |
| 2026-04-19 09:31 | 38.44305 | 116.30708 | 12710 ft | 387 kts | 13° |
| 2026-04-19 09:32 | 38.46930 | 116.31615 | 12579 ft | 388 kts | 12° |
| 2026-04-19 09:32 | 38.50374 | 116.32804 | 11962 ft | 385 kts | 12° |
| 2026-04-19 09:32 | 38.52093 | 116.33398 | 11673 ft | 382 kts | 12° |
| 2026-04-19 09:32 | 38.54649 | 116.34277 | 11262 ft | 377 kts | 12° |
| 2026-04-19 09:33 | 38.57130 | 116.35136 | 10893 ft | 371 kts | 13° |
| 2026-04-19 09:33 | 38.59593 | 116.35989 | 10622 ft | 361 kts | 13° |
| 2026-04-19 09:33 | 38.61997 | 116.36822 | 10481 ft | 347 kts | 13° |
| 2026-04-19 09:33 | 38.64268 | 116.37600 | 10342 ft | 334 kts | 11° |
| 2026-04-19 09:34 | 38.66479 | 116.38204 | 10211 ft | 320 kts | 8° |
| 2026-04-19 09:34 | 38.68643 | 116.38718 | 10078 ft | 309 kts | 8° |
| 2026-04-19 09:34 | 38.70718 | 116.39198 | 9967 ft | 297 kts | 7° |
| 2026-04-19 09:34 | 38.72723 | 116.39661 | 9708 ft | 291 kts | 7° |
| 2026-04-19 09:35 | 38.74716 | 116.40124 | 9378 ft | 289 kts | 7° |
| 2026-04-19 09:35 | 38.76657 | 116.40578 | 9087 ft | 284 kts | 7° |
| 2026-04-19 09:35 | 38.78591 | 116.41032 | 8803 ft | 280 kts | 7° |
| 2026-04-19 09:35 | 38.80490 | 116.41475 | 8520 ft | 275 kts | 6° |
| 2026-04-19 09:36 | 38.82375 | 116.41917 | 8237 ft | 271 kts | 6° |
| 2026-04-19 09:36 | 38.84198 | 116.42346 | 7948 ft | 266 kts | 6° |
| 2026-04-19 09:36 | 38.86002 | 116.42772 | 7667 ft | 262 kts | 5° |
| 2026-04-19 09:36 | 38.87786 | 116.43192 | 7396 ft | 258 kts | 5° |
| 2026-04-19 09:37 | 38.89548 | 116.43604 | 7123 ft | 254 kts | 5° |
| 2026-04-19 09:37 | 38.91266 | 116.44011 | 6853 ft | 250 kts | 5° |
| 2026-04-19 09:37 | 38.92971 | 116.44412 | 6582 ft | 245 kts | 4° |
| 2026-04-19 09:37 | 38.94635 | 116.44804 | 6307 ft | 242 kts | 4° |
| 2026-04-19 09:38 | 38.96273 | 116.45189 | 6024 ft | 238 kts | 4° |
| 2026-04-19 09:38 | 38.97907 | 116.45571 | 5743 ft | 235 kts | 4° |
| 2026-04-19 09:38 | 38.99501 | 116.45944 | 5469 ft | 231 kts | 5° |
| 2026-04-19 09:38 | 39.01077 | 116.46315 | 5191 ft | 228 kts | 5° |
| 2026-04-19 09:39 | 39.02628 | 116.46682 | 4916 ft | 225 kts | 5° |
| 2026-04-19 09:39 | 39.04157 | 116.47044 | 4644 ft | 222 kts | 5° |
| 2026-04-19 09:39 | 39.05644 | 116.47397 | 4374 ft | 218 kts | 5° |
| 2026-04-19 09:39 | 39.07136 | 116.47749 | 4104 ft | 214 kts | 5° |
| 2026-04-19 09:40 | 39.08582 | 116.48093 | 3907 ft | 206 kts | 5° |
| 2026-04-19 09:40 | 39.09949 | 116.48416 | 3892 ft | 197 kts | 3° |
| 2026-04-19 09:40 | 39.11294 | 116.48554 | 3894 ft | 193 kts | 356° |
| 2026-04-19 09:40 | 39.12628 | 116.48436 | 3921 ft | 190 kts | 350° |
| 2026-04-19 09:41 | 39.13885 | 116.48254 | 3967 ft | 170 kts | 349° |
| 2026-04-19 09:41 | 39.15004 | 116.48090 | 3901 ft | 154 kts | 349° |
| 2026-04-19 09:41 | 39.16034 | 116.47935 | 3891 ft | 147 kts | 349° |
| 2026-04-19 09:41 | 39.17051 | 116.47774 | 3903 ft | 149 kts | 349° |
| 2026-04-19 09:42 | 39.18078 | 116.47615 | 3907 ft | 149 kts | 349° |
| 2026-04-19 09:42 | 39.19111 | 116.47456 | 3910 ft | 148 kts | 349° |
| 2026-04-19 09:42 | 39.20139 | 116.47321 | 3903 ft | 148 kts | 349° |
| 2026-04-19 09:42 | 39.21173 | 116.47193 | 3920 ft | 148 kts | 349° |
| 2026-04-19 09:43 | 39.22200 | 116.47059 | 3934 ft | 147 kts | 350° |
| 2026-04-19 09:43 | 39.23217 | 116.46919 | 4010 ft | 146 kts | 349° |
| 2026-04-19 09:43 | 39.24213 | 116.46774 | 4025 ft | 143 kts | 349° |
| 2026-04-19 09:43 | 39.25203 | 116.46625 | 4042 ft | 143 kts | 348° |
| 2026-04-19 09:44 | 39.26521 | 116.46419 | 3911 ft | 143 kts | 348° |
| 2026-04-19 09:44 | 39.27189 | 116.46313 | 3789 ft | 142 kts | 348° |
| 2026-04-19 09:44 | 39.28169 | 116.46156 | 3595 ft | 142 kts | 349° |
| 2026-04-19 09:44 | 39.29141 | 116.46000 | 3513 ft | 142 kts | 349° |
| 2026-04-19 09:45 | 39.30129 | 116.45840 | 3414 ft | 142 kts | 349° |
| 2026-04-19 09:45 | 39.31102 | 116.45684 | 3231 ft | 141 kts | 349° |
| 2026-04-19 09:45 | 39.32079 | 116.45527 | 3038 ft | 141 kts | 349° |
| 2026-04-19 09:45 | 39.33380 | 116.45317 | 2789 ft | 140 kts | 349° |
| 2026-04-19 09:46 | 39.34030 | 116.45214 | 2661 ft | 140 kts | 349° |
| 2026-04-19 09:46 | 39.34991 | 116.45060 | 2477 ft | 139 kts | 350° |
| 2026-04-19 09:46 | 39.35951 | 116.44907 | 2289 ft | 138 kts | 350° |
| 2026-04-19 09:46 | 39.36906 | 116.44756 | 2101 ft | 138 kts | 349° |
| 2026-04-19 09:47 | 39.38181 | 116.44553 | 1874 ft | 138 kts | 350° |
| 2026-04-19 09:47 | 39.39133 | 116.44404 | 1686 ft | 137 kts | 349° |
| 2026-04-19 09:47 | 39.39762 | 116.44303 | 1559 ft | 137 kts | 351° |
| 2026-04-19 09:47 | 39.40710 | 116.44154 | 1376 ft | 137 kts | 351° |
| 2026-04-19 09:48 | 39.41972 | 116.43952 | 1128 ft | 136 kts | 352° |
| 2026-04-19 09:48 | 39.42591 | 116.43855 | 1008 ft | 136 kts | 351° |
| 2026-04-19 09:48 | 39.43539 | 116.43703 | 826 ft | 135 kts | 352° |
| 2026-04-19 09:48 | 39.44470 | 116.43555 | 649 ft | 135 kts | 352° |
| 2026-04-19 09:49 | 39.45396 | 116.43409 | 464 ft | 134 kts | 353° |
| 2026-04-19 09:49 | 39.46320 | 116.43263 | 273 ft | 133 kts | 353° |
| 2026-04-19 09:49 | 39.47242 | 116.43113 | 106 ft | 133 kts | 354° |
| 2026-04-19 09:49 | 39.48081 | 116.42984 | 91 ft | 101 kts | 353° |
| 2026-04-19 09:50 | 39.48613 | 116.42902 | 91 ft | 51 kts | 352° |
| 2026-04-19 09:50 | 39.48912 | 116.42853 | 91 ft | 41 kts | 352° |
| 2026-04-19 09:50 | 39.49119 | 116.42788 | 91 ft | 27 kts | 333° |
| 2026-04-19 09:50 | 39.49274 | 116.42660 | 91 ft | 25 kts | 326° |
| 2026-04-19 09:51 | 39.49419 | 116.42533 | 91 ft | 24 kts | 326° |
| 2026-04-19 09:51 | 39.49557 | 116.42419 | 91 ft | 22 kts | 342° |
| 2026-04-19 09:51 | 39.49709 | 116.42390 | 91 ft | 21 kts | 353° |
| 2026-04-19 09:51 | 39.49852 | 116.42367 | 91 ft | 20 kts | 352° |
| 2026-04-19 09:52 | 39.49989 | 116.42346 | 91 ft | 19 kts | 353° |
| 2026-04-19 09:52 | 39.50120 | 116.42325 | 91 ft | 18 kts | 353° |
| 2026-04-19 09:52 | 39.50250 | 116.42305 | 91 ft | 18 kts | 352° |
| 2026-04-19 09:52 | 39.50374 | 116.42285 | 91 ft | 17 kts | 353° |
| 2026-04-19 09:53 | 39.50497 | 116.42266 | 91 ft | 17 kts | 353° |
| 2026-04-19 09:53 | 39.50619 | 116.42247 | 91 ft | 17 kts | 353° |
| 2026-04-19 09:53 | 39.50737 | 116.42228 | 91 ft | 17 kts | 352° |
| 2026-04-19 09:53 | 39.50894 | 116.42203 | 91 ft | 16 kts | 353° |
| 2026-04-19 09:54 | 39.50972 | 116.42191 | 91 ft | 13 kts | 353° |
| 2026-04-19 09:54 | 39.50983 | 116.42189 | 91 ft | 0 kts | 352° |
| 2026-04-19 09:54 | 39.50994 | 116.42188 | 91 ft | 4 kts | 352° |
| 2026-04-19 09:54 | 39.51041 | 116.42180 | 91 ft | 9 kts | 353° |
| 2026-04-19 09:55 | 39.51106 | 116.42135 | 91 ft | 13 kts | 289° |
| 2026-04-19 09:55 | 39.51099 | 116.42011 | 91 ft | 14 kts | 263° |
| 2026-04-19 09:55 | 39.51088 | 116.41885 | 91 ft | 14 kts | 263° |
| 2026-04-19 09:55 | 39.51075 | 116.41756 | 91 ft | 14 kts | 262° |
| 2026-04-19 09:56 | 39.51063 | 116.41629 | 91 ft | 14 kts | 262° |
| 2026-04-19 09:56 | 39.51053 | 116.41525 | 91 ft | 7 kts | 259° |
| 2026-04-19 09:56 | 39.51025 | 116.41468 | 91 ft | 8 kts | 230° |
| 2026-04-19 09:56 | 39.50993 | 116.41419 | 91 ft | 3 kts | 228° |
| 2026-04-19 09:57 | 39.50991 | 116.41416 | 91 ft | 0 kts | 229° |